Time;durP1;ratioP1;P1;durP2;ratioP2;P2;SDS_P1;SDS_P2;PMS_P1;PMS_P2;Temp;Humidity;BMP_temperature;BMP_pressure;BME280_temperature;BME280_humidity;BME280_pressure;Samples;Min_cycle;Max_cycle;Signal;HPM_P1;HPM_P2
2023/02/03 00:02:03;;;;;;;0.30;0.30;;;20.30;36.00;;;;;;5033279;28;20053;-67
2023/02/03 00:04:31;;;;;;;0.60;0.50;;;20.30;36.00;;;;;;5032125;28;20056;-67
2023/02/03 00:06:58;;;;;;;0.82;0.70;;;20.30;36.00;;;;;;5032617;28;20052;-68
2023/02/03 00:09:25;;;;;;;0.38;0.30;;;20.30;36.00;;;;;;5032844;28;20404;-67
2023/02/03 00:11:53;;;;;;;0.47;0.40;;;20.30;36.00;;;;;;5032278;28;20056;-67
2023/02/03 00:14:20;;;;;;;0.45;0.32;;;20.30;36.00;;;;;;5032984;28;20056;-67
2023/02/03 00:16:47;;;;;;;0.85;0.50;;;20.30;36.00;;;;;;5033050;28;20049;-67
2023/02/03 00:19:14;;;;;;;1.50;0.75;;;20.20;35.90;;;;;;5032029;28;20523;-67
2023/02/03 00:21:43;;;;;;;1.50;0.60;;;20.20;35.90;;;;;;5032657;28;20084;-67
2023/02/03 00:24:11;;;;;;;0.40;0.40;;;20.20;35.90;;;;;;5032479;28;20401;-67
2023/02/03 00:26:42;;;;;;;0.50;0.50;;;20.20;35.90;;;;;;5032439;28;20045;-67
2023/02/03 00:29:09;;;;;;;0.40;0.40;;;20.20;35.90;;;;;;5017387;28;20056;-66
2023/02/03 00:31:36;;;;;;;0.68;0.50;;;20.20;35.90;;;;;;5032365;28;20136;-67
2023/02/03 00:34:03;;;;;;;0.30;0.30;;;20.20;35.90;;;;;;5032365;28;20049;-67
2023/02/03 00:36:30;;;;;;;0.80;0.38;;;20.20;35.90;;;;;;5032281;28;20084;-67
2023/02/03 00:38:59;;;;;;;0.73;0.50;;;20.20;35.90;;;;;;5033108;28;20112;-67
2023/02/03 00:41:30;;;;;;;0.47;0.47;;;20.20;35.90;;;;;;5033094;28;20052;-67
2023/02/03 00:43:57;;;;;;;;;;;20.20;35.80;;;;;;5016050;28;20420;-66
2023/02/03 00:46:24;;;;;;;0.63;0.50;;;20.20;35.80;;;;;;5032163;28;19967;-67
2023/02/03 00:48:51;;;;;;;0.43;0.43;;;20.20;35.80;;;;;;5032183;28;20064;-67
2023/02/03 00:51:18;;;;;;;0.40;0.40;;;20.20;35.90;;;;;;5032678;28;20045;-66
2023/02/03 00:53:46;;;;;;;1.15;0.43;;;20.20;35.80;;;;;;5032438;28;20049;-67
2023/02/03 00:56:14;;;;;;;0.50;0.50;;;20.20;35.80;;;;;;5032987;28;20125;-67
2023/02/03 00:58:41;;;;;;;2.65;0.68;;;20.20;35.90;;;;;;5031884;28;20087;-67
2023/02/03 01:01:09;;;;;;;0.75;0.60;;;20.20;35.90;;;;;;5031304;28;20553;-67
2023/02/03 01:03:36;;;;;;;0.43;0.43;;;20.20;35.80;;;;;;5032169;28;20049;-67
2023/02/03 01:06:18;;;;;;;0.73;0.52;;;20.20;35.80;;;;;;5033730;28;20493;-68
2023/02/03 01:08:45;;;;;;;1.63;0.98;;;20.20;35.80;;;;;;5036034;28;20046;-66
2023/02/03 01:11:17;;;;;;;0.75;0.75;;;20.20;35.80;;;;;;5018148;28;20057;-67
2023/02/03 01:13:44;;;;;;;0.60;0.60;;;20.10;35.80;;;;;;5018610;28;20046;-67
2023/02/03 01:16:14;;;;;;;0.98;0.60;;;20.10;35.80;;;;;;5036067;28;20046;-67
2023/02/03 01:18:43;;;;;;;1.00;0.52;;;20.10;35.80;;;;;;5036632;28;20474;-67
2023/02/03 01:21:14;;;;;;;0.50;0.50;;;20.10;35.80;;;;;;5035439;28;20056;-67
2023/02/03 01:23:42;;;;;;;0.60;0.52;;;20.10;35.80;;;;;;5035956;28;20552;-67
2023/02/03 01:26:12;;;;;;;0.82;0.47;;;20.10;35.70;;;;;;5035131;28;20124;-67
2023/02/03 01:28:39;;;;;;;0.57;0.30;;;20.10;35.80;;;;;;5035993;28;20053;-67
2023/02/03 01:31:17;;;;;;;1.42;0.70;;;20.10;35.70;;;;;;5035515;28;20045;-66
2023/02/03 01:33:46;;;;;;;0.63;0.40;;;20.10;35.70;;;;;;5035310;28;20049;-66
2023/02/03 01:36:16;;;;;;;1.57;0.40;;;20.10;35.70;;;;;;5035199;28;20060;-67
2023/02/03 01:38:44;;;;;;;0.55;0.55;;;20.10;35.70;;;;;;5035035;28;20283;-66
2023/02/03 01:41:16;;;;;;;0.63;0.47;;;20.10;35.80;;;;;;5035113;28;20500;-66
2023/02/03 01:43:50;;;;;;;0.50;0.47;;;20.10;35.70;;;;;;5015333;28;20473;-66
2023/02/03 01:46:35;;;;;;;0.80;0.80;;;20.10;35.70;;;;;;5015919;28;20042;-67
2023/02/03 01:49:24;;;;;;;0.43;0.40;;;20.10;35.70;;;;;;5000010;28;20050;-66
2023/02/03 01:51:52;;;;;;;0.60;0.60;;;20.10;35.70;;;;;;5014644;28;20084;-67
2023/02/03 01:54:27;;;;;;;0.47;0.40;;;20.10;35.70;;;;;;5015191;28;20056;-66
2023/02/03 01:57:02;;;;;;;0.68;0.50;;;20.10;35.70;;;;;;5015386;28;20045;-67
2023/02/03 01:59:32;;;;;;;0.82;0.50;;;20.10;35.70;;;;;;5014980;28;20504;-67
2023/02/03 02:02:00;;;;;;;;;;;20.10;35.60;;;;;;5016053;28;20133;-67
2023/02/03 02:04:35;;;;;;;0.63;0.55;;;20.10;35.60;;;;;;5001622;28;20213;-67
2023/02/03 02:07:04;;;;;;;0.40;0.40;;;20.10;35.60;;;;;;5035181;28;20450;-67
2023/02/03 02:09:31;;;;;;;0.60;0.40;;;20.10;35.60;;;;;;5035036;28;20045;-67
2023/02/03 02:11:58;;;;;;;0.70;0.40;;;20.10;35.60;;;;;;5034262;28;20077;-67
2023/02/03 02:14:27;;;;;;;0.55;0.50;;;20.10;35.60;;;;;;5034725;28;20081;-67
2023/02/03 02:17:21;;;;;;;1.27;0.50;;;20.10;35.50;;;;;;5033597;28;20045;-67
2023/02/03 02:20:17;;;;;;;1.20;0.65;;;20.10;35.50;;;;;;5034386;28;20055;-67
2023/02/03 02:23:15;;;;;;;0.60;0.50;;;20.10;35.50;;;;;;5014040;28;20053;-67
2023/02/03 02:26:21;;;;;;;0.40;0.40;;;20.10;35.50;;;;;;5015349;28;20060;-66
2023/02/03 02:29:10;;;;;;;1.13;0.80;;;20.10;35.50;;;;;;5014832;28;20053;-67
2023/02/03 02:31:54;;;;;;;2.35;1.10;;;20.10;35.50;;;;;;5014326;28;20042;-66
2023/02/03 02:34:38;;;;;;;0.70;0.60;;;20.10;35.50;;;;;;5014259;28;20132;-67
2023/02/03 02:37:34;;;;;;;0.55;0.50;;;20.10;35.50;;;;;;5015396;28;20425;-67
2023/02/03 02:40:26;;;;;;;0.40;0.40;;;20.10;35.50;;;;;;5015008;28;20064;-67
2023/02/03 02:43:18;;;;;;;0.60;0.52;;;20.10;35.50;;;;;;5015002;28;20050;-67
2023/02/03 02:45:49;;;;;;;0.47;0.47;;;20.10;35.50;;;;;;5014255;28;20053;-67
2023/02/03 02:48:23;;;;;;;1.35;0.50;;;20.00;35.40;;;;;;5014869;28;20081;-67
2023/02/03 02:50:54;;;;;;;1.08;0.70;;;20.00;35.40;;;;;;5018532;28;20128;-67
2023/02/03 02:53:24;;;;;;;0.55;0.55;;;20.00;35.40;;;;;;5034771;28;20067;-67
2023/02/03 02:55:52;;;;;;;;;;;20.10;35.50;;;;;;5034813;28;20053;-67
2023/02/03 02:58:21;;;;;;;2.42;0.68;;;20.00;35.40;;;;;;5034568;28;19928;-67
2023/02/03 03:00:48;;;;;;;1.10;0.88;;;20.00;35.40;;;;;;5034098;28;20045;-67
2023/02/03 03:03:21;;;;;;;0.80;0.60;;;20.00;35.40;;;;;;5034012;28;20053;-67
2023/02/03 03:05:53;;;;;;;1.35;0.75;;;20.00;35.40;;;;;;5028342;28;20048;-67
2023/02/03 03:08:29;;;;;;;1.13;0.60;;;20.00;35.40;;;;;;5024118;28;20075;-66
2023/02/03 03:10:57;;;;;;;0.65;0.50;;;20.00;35.30;;;;;;5006089;28;20070;-67
2023/02/03 03:13:30;;;;;;;1.10;0.75;;;20.00;35.40;;;;;;5022009;28;20049;-67
2023/02/03 03:16:00;;;;;;;0.77;0.77;;;20.00;35.30;;;;;;5021693;28;20060;-67
2023/02/03 03:18:32;;;;;;;1.05;0.95;;;20.00;35.30;;;;;;5027387;28;20050;-67
2023/02/03 03:21:04;;;;;;;0.73;0.50;;;20.00;35.30;;;;;;5033076;28;20053;-67
2023/02/03 03:23:38;;;;;;;1.02;0.50;;;20.00;35.30;;;;;;5033474;28;20539;-67
2023/02/03 03:26:17;;;;;;;0.60;0.50;;;20.00;35.30;;;;;;5033049;28;20056;-67
2023/02/03 03:28:51;;;;;;;0.95;0.68;;;20.00;35.30;;;;;;5033085;28;20052;-67
2023/02/03 03:31:19;;;;;;;0.65;0.65;;;20.00;35.30;;;;;;5026300;28;20076;-67
2023/02/03 03:33:47;;;;;;;0.55;0.55;;;20.00;35.30;;;;;;5016925;28;20077;-66
2023/02/03 03:36:32;;;;;;;0.98;0.70;;;20.00;35.30;;;;;;5021572;28;20107;-67
2023/02/03 03:39:20;;;;;;;0.75;0.55;;;20.00;35.30;;;;;;5022140;28;20050;-67
2023/02/03 03:42:11;;;;;;;1.35;0.68;;;20.00;35.30;;;;;;5031166;28;20054;-66
2023/02/03 03:44:47;;;;;;;0.60;0.50;;;20.00;35.30;;;;;;5033320;28;20137;-67
2023/02/03 03:47:23;;;;;;;0.45;0.45;;;20.00;35.30;;;;;;5033321;28;20408;-67
2023/02/03 03:49:52;;;;;;;1.15;0.57;;;20.00;35.30;;;;;;5033216;28;20386;-67
2023/02/03 03:52:23;;;;;;;0.35;0.35;;;20.00;35.30;;;;;;5033007;28;20049;-67
2023/02/03 03:54:53;;;;;;;0.95;0.63;;;20.00;35.30;;;;;;5032619;28;20128;-67
2023/02/03 03:57:35;;;;;;;0.82;0.70;;;20.00;35.40;;;;;;5032274;28;20049;-67
2023/02/03 04:00:06;;;;;;;0.60;0.47;;;20.00;35.30;;;;;;5032302;28;20076;-67
2023/02/03 04:02:35;;;;;;;1.05;0.70;;;20.00;35.30;;;;;;5032707;28;20052;-67
2023/02/03 04:05:04;;;;;;;0.70;0.63;;;20.00;35.30;;;;;;5033264;28;20416;-67
2023/02/03 04:07:40;;;;;;;0.90;0.85;;;20.00;35.30;;;;;;5032826;28;20378;-67
2023/02/03 04:10:22;;;;;;;0.82;0.60;;;20.00;35.30;;;;;;5032949;28;20081;-67
2023/02/03 04:12:49;;;;;;;1.27;0.68;;;20.00;35.20;;;;;;5032653;28;20049;-67
2023/02/03 04:15:16;;;;;;;2.22;1.02;;;20.00;35.20;;;;;;5032177;28;20496;-67
2023/02/03 04:17:43;;;;;;;0.77;0.77;;;20.00;35.20;;;;;;5032306;28;20049;-67
2023/02/03 04:20:11;;;;;;;1.25;0.77;;;20.00;35.20;;;;;;5012508;28;20055;-67
2023/02/03 04:22:38;;;;;;;0.55;0.40;;;20.00;35.20;;;;;;5025002;28;20371;-67
2023/02/03 04:25:06;;;;;;;1.33;0.93;;;20.00;35.20;;;;;;5021676;28;20448;-67
2023/02/03 04:27:34;;;;;;;0.73;0.73;;;20.00;35.20;;;;;;5020640;28;20042;-67
2023/02/03 04:30:01;;;;;;;0.30;0.30;;;20.00;35.20;;;;;;5026601;28;20139;-67
2023/02/03 04:32:29;;;;;;;0.50;0.47;;;20.00;35.20;;;;;;5012194;28;20129;-68
2023/02/03 04:34:57;;;;;;;0.57;0.52;;;20.00;35.20;;;;;;5011745;28;20057;-67
2023/02/03 04:37:28;;;;;;;1.13;0.43;;;20.00;35.10;;;;;;5012990;28;20050;-67
2023/02/03 04:39:55;;;;;;;;;;;20.00;35.20;;;;;;5023232;28;20136;-67
2023/02/03 04:42:22;;;;;;;0.93;0.40;;;20.00;35.10;;;;;;5023195;28;19921;-67
2023/02/03 04:44:50;;;;;;;0.40;0.40;;;20.00;35.10;;;;;;5031941;28;20088;-67
2023/02/03 04:47:18;;;;;;;0.45;0.40;;;20.00;35.10;;;;;;5050036;28;20056;-67
2023/02/03 04:49:45;;;;;;;0.85;0.45;;;19.90;35.10;;;;;;5029984;28;20041;-68
2023/02/03 04:52:14;;;;;;;0.20;0.20;;;19.90;35.10;;;;;;5029136;28;20053;-67
2023/02/03 04:54:41;;;;;;;0.68;0.60;;;20.00;35.10;;;;;;5030082;28;20052;-68
2023/02/03 04:57:08;;;;;;;0.50;0.30;;;20.00;35.10;;;;;;5029899;28;20045;-67
2023/02/03 04:59:35;;;;;;;0.50;0.50;;;19.90;35.10;;;;;;5031639;28;20481;-68
2023/02/03 05:02:07;;;;;;;0.30;0.25;;;20.00;35.10;;;;;;5031094;28;20076;-67
2023/02/03 05:04:34;;;;;;;0.73;0.50;;;20.00;35.10;;;;;;5031321;28;20080;-67
2023/02/03 05:07:01;;;;;;;0.73;0.50;;;20.00;35.10;;;;;;5031848;28;20045;-67
2023/02/03 05:09:28;;;;;;;0.40;0.40;;;20.00;35.10;;;;;;5031435;28;20056;-66
2023/02/03 05:11:56;;;;;;;0.60;0.60;;;19.90;35.00;;;;;;5029940;28;20076;-67
2023/02/03 05:14:23;;;;;;;0.85;0.30;;;19.90;35.00;;;;;;5024890;28;20072;-67
2023/02/03 05:16:50;;;;;;;1.25;0.63;;;19.90;35.00;;;;;;5023225;28;20481;-67
2023/02/03 05:19:17;;;;;;;0.75;0.47;;;19.90;35.00;;;;;;5020056;28;20405;-67
2023/02/03 05:21:44;;;;;;;0.40;0.30;;;19.90;35.10;;;;;;5022673;28;20049;-68
2023/02/03 05:24:11;;;;;;;0.77;0.40;;;19.90;35.00;;;;;;5021066;28;20044;-66
2023/02/03 05:26:38;;;;;;;0.70;0.30;;;19.90;35.00;;;;;;5020825;28;20049;-67
2023/02/03 05:29:05;;;;;;;0.82;0.45;;;20.00;35.10;;;;;;5022070;28;20038;-67
2023/02/03 05:31:33;;;;;;;0.80;0.55;;;20.00;35.10;;;;;;5021648;28;20144;-67
2023/02/03 05:34:00;;;;;;;0.43;0.40;;;19.90;35.00;;;;;;5028376;28;20042;-68
2023/02/03 05:36:27;;;;;;;0.63;0.40;;;19.90;35.00;;;;;;5031111;28;20049;-67
2023/02/03 05:38:54;;;;;;;0.77;0.60;;;19.90;34.70;;;;;;5031150;28;20053;-67
2023/02/03 05:44:08;;;;;;;0.65;0.50;;;19.90;34.40;;;;;;5031669;28;20046;-67
2023/02/03 05:46:35;;;;;;;0.77;0.50;;;19.90;34.40;;;;;;5032289;28;20099;-67
2023/02/03 05:49:02;;;;;;;1.15;0.70;;;19.80;34.30;;;;;;5031486;28;20136;-67
2023/02/03 05:51:30;;;;;;;0.60;0.55;;;19.90;34.40;;;;;;5034082;28;20509;-67
2023/02/03 05:53:57;;;;;;;0.38;0.38;;;19.80;34.30;;;;;;5033556;28;20505;-68
2023/02/03 05:56:24;;;;;;;1.17;0.63;;;19.80;34.40;;;;;;5034530;28;20053;-66
2023/02/03 05:58:52;;;;;;;0.52;0.52;;;19.80;34.40;;;;;;5034795;28;20056;-67
2023/02/03 06:01:19;;;;;;;0.38;0.38;;;19.80;34.40;;;;;;5033680;28;20088;-67
2023/02/03 06:03:47;;;;;;;1.10;0.82;;;19.90;34.60;;;;;;5033637;28;20046;-66
2023/02/03 06:06:15;;;;;;;0.40;0.40;;;19.80;34.50;;;;;;5030559;28;20414;-68
2023/02/03 06:08:42;;;;;;;1.20;0.80;;;19.90;34.60;;;;;;4997331;28;20064;-68
2023/02/03 06:11:10;;;;;;;1.63;0.80;;;19.90;34.60;;;;;;5024710;28;20041;-69
2023/02/03 06:13:37;;;;;;;1.45;0.60;;;19.90;34.50;;;;;;5054494;28;20057;-66
2023/02/03 06:16:05;;;;;;;0.65;0.50;;;19.90;34.50;;;;;;5054365;28;20084;-67
2023/02/03 06:18:32;;;;;;;0.57;0.40;;;19.90;34.40;;;;;;5045200;28;20041;-66
2023/02/03 06:20:59;;;;;;;0.70;0.63;;;20.00;34.50;;;;;;5017466;28;20057;-59
2023/02/03 06:23:26;;;;;;;3.05;0.77;;;20.00;34.50;;;;;;5024466;28;20128;-59
2023/02/03 06:25:54;;;;;;;0.43;0.40;;;20.00;34.40;;;;;;5028551;28;20052;-59
2023/02/03 06:28:21;;;;;;;1.65;0.73;;;20.10;34.50;;;;;;5024070;28;20081;-60
2023/02/03 06:30:50;;;;;;;1.00;0.77;;;20.10;34.40;;;;;;5021850;28;20050;-67
2023/02/03 06:33:19;;;;;;;0.77;0.77;;;20.20;34.40;;;;;;5028262;28;20053;-68
2023/02/03 06:35:46;;;;;;;0.88;0.57;;;20.20;34.50;;;;;;5021595;28;20150;-65
2023/02/03 06:38:13;;;;;;;0.68;0.57;;;20.30;34.50;;;;;;5022601;28;20136;-67
2023/02/03 06:40:40;;;;;;;1.58;0.90;;;20.30;34.40;;;;;;5024497;28;20045;-69
2023/02/03 06:43:08;;;;;;;0.95;0.77;;;20.30;34.40;;;;;;5020268;28;20048;-65
2023/02/03 06:45:35;;;;;;;1.15;0.68;;;20.40;34.30;;;;;;5013807;28;20076;-66
2023/02/03 06:48:02;;;;;;;1.25;1.00;;;20.40;34.30;;;;;;5014803;28;20049;-65
2023/02/03 06:50:29;;;;;;;2.70;1.10;;;20.40;34.30;;;;;;5021807;28;20051;-65
2023/02/03 06:52:56;;;;;;;2.22;1.20;;;20.50;34.20;;;;;;5002931;28;20053;-66
2023/02/03 06:55:24;;;;;;;1.98;1.45;;;20.50;34.20;;;;;;5017909;28;20041;-64
2023/02/03 06:57:51;;;;;;;1.73;1.23;;;20.50;34.40;;;;;;5018354;28;20038;-65
2023/02/03 07:00:19;;;;;;;4.57;1.92;;;20.60;34.30;;;;;;5021501;28;20049;-66
2023/02/03 07:02:57;;;;;;;3.28;2.08;;;20.60;34.20;;;;;;5004855;28;20049;-64
2023/02/03 07:05:26;;;;;;;4.80;2.58;;;20.60;34.30;;;;;;5021212;28;20111;-63
2023/02/03 07:07:54;;;;;;;17.48;5.00;;;20.70;35.10;;;;;;5023842;28;20042;-64
2023/02/03 07:10:22;;;;;;;24.40;8.70;;;20.70;35.00;;;;;;5024423;28;20136;-62
2023/02/03 07:12:50;;;;;;;30.90;9.77;;;20.80;35.50;;;;;;5022417;28;20080;-65
2023/02/03 07:15:18;;;;;;;29.85;11.63;;;20.80;35.70;;;;;;5022287;28;20112;-68
2023/02/03 07:17:53;;;;;;;36.90;12.50;;;20.90;35.70;;;;;;5021488;28;20107;-65
2023/02/03 07:20:22;;;;;;;39.05;12.07;;;20.90;35.70;;;;;;5022096;28;20053;-67
2023/02/03 07:22:56;;;;;;;36.90;11.50;;;21.00;35.50;;;;;;5019873;28;20478;-76
2023/02/03 07:25:24;;;;;;;33.63;11.68;;;21.00;35.50;;;;;;5029015;28;20120;-69
2023/02/03 07:27:51;;;;;;;35.53;11.95;;;21.10;35.40;;;;;;5021826;28;20049;-69
2023/02/03 07:30:19;;;;;;;34.78;12.43;;;21.20;35.20;;;;;;5021867;28;20045;-73
2023/02/03 07:32:49;;;;;;;33.80;11.02;;;21.20;35.20;;;;;;5004120;28;20054;-70
2023/02/03 07:35:16;;;;;;;42.88;11.55;;;21.20;35.10;;;;;;5021786;28;20120;-73
2023/02/03 07:37:44;;;;;;;34.88;10.02;;;21.30;35.10;;;;;;5020305;28;20061;-71
2023/02/03 07:40:13;;;;;;;41.85;10.43;;;21.30;35.10;;;;;;5024248;28;20046;-70
2023/02/03 07:42:42;;;;;;;28.98;9.88;;;21.40;35.20;;;;;;5026049;28;20073;-69
2023/02/03 07:45:10;;;;;;;26.88;9.23;;;21.40;35.20;;;;;;5023523;28;20045;-68
2023/02/03 07:47:38;;;;;;;28.73;9.65;;;21.50;35.10;;;;;;5006054;28;20064;-71
2023/02/03 07:50:05;;;;;;;25.33;9.40;;;21.50;35.00;;;;;;5023463;28;20056;-72
2023/02/03 07:52:32;;;;;;;25.85;9.18;;;21.50;34.90;;;;;;5021482;28;20049;-73
2023/02/03 07:54:59;;;;;;;22.92;9.55;;;21.60;34.90;;;;;;5022695;28;20058;-71
2023/02/03 07:57:29;;;;;;;18.90;7.72;;;21.60;34.80;;;;;;5024537;28;20484;-76
2023/02/03 07:59:56;;;;;;;19.35;8.52;;;21.70;34.70;;;;;;5020376;28;20693;-73
2023/02/03 08:02:24;;;;;;;25.38;8.60;;;21.70;34.60;;;;;;5019993;28;20058;-71
2023/02/03 08:04:51;;;;;;;19.95;7.47;;;21.70;34.50;;;;;;5020275;28;20048;-67
2023/02/03 08:07:19;;;;;;;22.35;7.50;;;21.80;34.60;;;;;;5027084;28;20075;-72
2023/02/03 08:09:46;;;;;;;18.27;8.07;;;21.80;34.50;;;;;;5015259;28;20037;-72
2023/02/03 08:12:13;;;;;;;18.67;7.50;;;21.90;34.40;;;;;;5016518;28;20045;-67
2023/02/03 08:14:41;;;;;;;18.88;6.78;;;21.90;34.40;;;;;;5002531;28;20042;-69
2023/02/03 08:17:08;;;;;;;16.98;6.82;;;22.00;34.40;;;;;;5025175;28;20084;-70
2023/02/03 08:19:35;;;;;;;15.57;6.05;;;22.00;34.40;;;;;;5023514;28;20049;-66
2023/02/03 08:22:02;;;;;;;16.15;6.85;;;22.10;34.40;;;;;;5021715;28;20049;-69
2023/02/03 08:24:29;;;;;;;16.25;6.20;;;22.10;34.20;;;;;;5022835;28;20041;-70
2023/02/03 08:26:58;;;;;;;14.95;6.65;;;22.20;34.20;;;;;;5022962;28;20050;-70
2023/02/03 08:29:25;;;;;;;16.77;6.47;;;22.20;34.10;;;;;;5018482;28;20057;-70
2023/02/03 08:31:53;;;;;;;16.23;6.10;;;22.30;34.10;;;;;;5023683;28;20136;-70
2023/02/03 08:34:21;;;;;;;12.98;5.53;;;22.30;34.10;;;;;;5024176;28;20057;-70
2023/02/03 08:36:48;;;;;;;16.83;6.32;;;22.40;34.00;;;;;;5023014;28;20049;-70
2023/02/03 08:39:15;;;;;;;16.70;6.25;;;22.40;33.90;;;;;;5024813;28;20758;-68
2023/02/03 08:41:42;;;;;;;15.65;6.88;;;22.40;33.80;;;;;;5027058;28;20056;-71
2023/02/03 08:44:09;;;;;;;15.82;6.07;;;22.40;33.80;;;;;;5018435;28;20037;-65
2023/02/03 08:46:42;;;;;;;16.35;6.68;;;22.50;33.80;;;;;;5019018;28;20064;-69
2023/02/03 08:49:10;;;;;;;20.77;7.28;;;22.50;33.90;;;;;;5020817;28;20049;-77
2023/02/03 08:51:37;;;;;;;26.30;8.93;;;22.50;34.60;;;;;;5023575;28;20060;-71
2023/02/03 08:54:04;;;;;;;20.08;7.47;;;22.50;34.10;;;;;;5017511;28;20494;-68
2023/02/03 08:56:33;;;;;;;23.60;9.05;;;22.60;34.10;;;;;;5021196;28;20511;-67
2023/02/03 08:59:00;;;;;;;21.50;7.88;;;22.60;34.00;;;;;;5019353;28;20341;-70
2023/02/03 09:01:28;;;;;;;22.00;8.20;;;22.70;34.00;;;;;;5025135;28;20470;-67
2023/02/03 09:03:55;;;;;;;22.70;8.88;;;22.70;33.90;;;;;;5021655;28;20052;-71
2023/02/03 09:06:22;;;;;;;19.15;8.52;;;22.70;33.90;;;;;;5016802;28;20986;-72
2023/02/03 09:08:52;;;;;;;23.80;8.73;;;22.70;33.80;;;;;;5015657;28;20099;-70
2023/02/03 09:11:19;;;;;;;26.70;8.13;;;22.80;33.70;;;;;;5021240;28;20046;-73
2023/02/03 09:13:47;;;;;;;17.52;7.80;;;22.80;33.60;;;;;;5023213;28;20140;-71
2023/02/03 09:16:16;;;;;;;19.50;7.72;;;22.80;33.60;;;;;;5022167;28;20053;-70
2023/02/03 09:18:45;;;;;;;22.20;8.85;;;22.80;33.70;;;;;;5022841;28;20440;-70
2023/02/03 09:21:14;;;;;;;22.08;8.50;;;22.80;33.80;;;;;;5024453;28;20123;-75
2023/02/03 09:24:02;;;;;;;25.77;9.43;;;22.80;33.80;;;;;;5019186;28;20154;-73
2023/02/03 09:26:30;;;;;;;26.48;10.40;;;22.80;33.80;;;;;;5021152;28;20091;-74
2023/02/03 09:28:57;;;;;;;20.63;8.82;;;22.90;33.80;;;;;;5027012;28;20065;-71
2023/02/03 09:31:24;;;;;;;23.83;8.40;;;22.90;33.80;;;;;;5026541;28;20049;-74
2023/02/03 09:33:51;;;;;;;27.13;10.13;;;23.00;33.80;;;;;;5018852;28;20114;-72
2023/02/03 09:36:19;;;;;;;29.33;11.23;;;23.00;33.80;;;;;;5023614;28;20057;-71
2023/02/03 09:38:46;;;;;;;24.63;9.18;;;23.10;34.30;;;;;;5025773;28;20478;-71
2023/02/03 09:41:35;;;;;;;25.25;9.50;;;23.10;33.60;;;;;;5007096;28;20054;-72
2023/02/03 09:44:19;;;;;;;26.55;9.02;;;23.10;33.70;;;;;;5025740;28;20095;-70
2023/02/03 09:46:57;;;;;;;30.05;10.27;;;23.20;33.70;;;;;;5027527;28;20041;-69
2023/02/03 09:49:36;;;;;;;33.25;11.70;;;23.20;33.70;;;;;;5025177;28;20068;-69
2023/02/03 09:52:17;;;;;;;32.38;12.20;;;23.30;34.30;;;;;;5026009;28;20109;-71
2023/02/03 09:55:10;;;;;;;37.88;15.85;;;23.30;33.80;;;;;;5028489;28;20045;-78
2023/02/03 09:57:55;;;;;;;33.30;13.48;;;23.30;33.80;;;;;;5021230;28;20408;-68
2023/02/03 10:00:47;;;;;;;34.30;13.23;;;23.30;33.70;;;;;;5007609;28;20041;-75
2023/02/03 10:03:40;;;;;;;34.33;12.50;;;23.40;33.70;;;;;;5018391;28;20058;-71
2023/02/03 10:06:37;;;;;;;33.28;11.88;;;23.40;33.70;;;;;;5009935;28;20045;-77
2023/02/03 10:09:29;;;;;;;35.90;13.98;;;23.50;33.70;;;;;;5023678;28;20045;-71
2023/02/03 10:12:24;;;;;;;28.23;10.48;;;23.50;33.50;;;;;;5024561;28;20049;-71
2023/02/03 10:15:26;;;;;;;27.92;10.50;;;23.60;33.50;;;;;;5021261;28;20041;-69
2023/02/03 10:17:59;;;;;;;29.58;11.25;;;23.60;33.30;;;;;;5022552;28;20069;-73
2023/02/03 10:20:49;;;;;;;29.90;10.82;;;23.60;33.20;;;;;;5023134;28;20056;-72
2023/02/03 10:23:29;;;;;;;27.27;10.80;;;23.70;33.20;;;;;;5021672;28;20952;-69
2023/02/03 10:26:00;;;;;;;27.30;11.30;;;23.70;33.20;;;;;;5021659;28;20068;-70
2023/02/03 10:28:38;;;;;;;27.90;10.85;;;23.80;33.20;;;;;;5003298;28;20053;-67
2023/02/03 10:31:18;;;;;;;29.92;10.95;;;23.80;33.00;;;;;;5020685;28;20404;-72
2023/02/03 10:33:46;;;;;;;33.80;13.63;;;23.90;32.90;;;;;;5023010;28;20042;-72
2023/02/03 10:36:21;;;;;;;34.28;13.18;;;23.90;32.70;;;;;;5022802;28;20059;-68
2023/02/03 10:39:28;;;;;;;31.13;12.02;;;23.90;32.40;;;;;;5021572;28;20045;-70
2023/02/03 10:41:56;;;;;;;36.80;14.50;;;24.00;32.50;;;;;;5015101;28;20053;-69
2023/02/03 10:44:36;;;;;;;36.90;12.45;;;24.00;32.40;;;;;;5022039;28;20053;-65
2023/02/03 10:47:23;;;;;;;29.30;12.23;;;24.00;32.40;;;;;;5019831;28;20107;-67
2023/02/03 10:49:52;;;;;;;32.05;12.88;;;24.00;32.20;;;;;;5021496;28;20404;-69
2023/02/03 10:52:33;;;;;;;35.13;13.73;;;24.10;32.40;;;;;;5023590;28;20128;-68
2023/02/03 10:55:08;;;;;;;;;;;24.00;32.10;;;;;;5026145;28;20073;-70
2023/02/03 10:57:38;;;;;;;28.75;10.50;;;24.10;32.00;;;;;;5001584;28;19963;-71
2023/02/03 11:00:20;;;;;;;37.28;13.50;;;24.00;32.00;;;;;;5030359;28;20073;-72
2023/02/03 11:03:23;;;;;;;34.83;13.15;;;24.10;32.00;;;;;;5023361;28;20057;-71
2023/02/03 11:06:11;;;;;;;31.60;12.63;;;24.10;32.00;;;;;;5020943;28;20421;-68
2023/02/03 11:08:42;;;;;;;37.25;13.80;;;24.10;32.00;;;;;;5027323;28;20247;-72
2023/02/03 11:11:31;;;;;;;40.83;14.65;;;24.10;32.10;;;;;;5025979;28;20164;-71
2023/02/03 11:14:15;;;;;;;39.78;15.10;;;24.10;32.00;;;;;;5022640;28;20527;-71
2023/02/03 11:16:42;;;;;;;37.33;14.75;;;24.10;32.00;;;;;;5027681;28;20049;-70
2023/02/03 11:19:21;;;;;;;43.75;16.45;;;24.10;31.90;;;;;;5025560;28;20049;-72
2023/02/03 11:21:52;;;;;;;52.63;19.65;;;24.10;32.00;;;;;;5022793;28;20041;-70
2023/02/03 11:24:27;;;;;;;53.13;20.33;;;24.10;32.00;;;;;;5019117;28;20049;-70
2023/02/03 11:27:08;;;;;;;51.20;22.13;;;24.10;32.00;;;;;;5025804;28;20050;-71
2023/02/03 11:29:46;;;;;;;53.38;19.92;;;24.10;31.90;;;;;;5023214;28;20133;-69
2023/02/03 11:32:26;;;;;;;53.67;18.40;;;24.00;31.90;;;;;;5024107;28;20111;-69
2023/02/03 11:35:02;;;;;;;50.92;18.02;;;24.10;31.90;;;;;;5024475;28;20477;-69
2023/02/03 11:37:38;;;;;;;45.20;17.88;;;24.00;31.90;;;;;;5023711;28;20462;-69
2023/02/03 11:40:30;;;;;;;44.08;17.30;;;24.00;31.80;;;;;;5008307;28;20053;-70
2023/02/03 11:43:03;;;;;;;40.88;15.55;;;24.00;31.80;;;;;;5008357;28;20045;-68
2023/02/03 11:45:52;;;;;;;40.35;14.95;;;23.90;31.70;;;;;;5026720;28;20042;-68
2023/02/03 11:48:39;;;;;;;39.38;15.30;;;23.90;31.70;;;;;;5020418;28;20057;-69
2023/02/03 11:51:41;;;;;;;37.00;13.95;;;23.90;31.70;;;;;;5020539;28;20044;-66
2023/02/03 11:54:39;;;;;;;34.67;14.02;;;23.90;31.70;;;;;;5004153;28;20053;-70
2023/02/03 11:57:42;;;;;;;31.20;13.10;;;23.90;32.20;;;;;;5016002;28;20053;-67
2023/02/03 12:00:34;;;;;;;35.45;12.52;;;23.90;32.40;;;;;;5014939;28;20054;-68
2023/02/03 12:03:35;;;;;;;36.88;13.48;;;23.90;32.60;;;;;;5018230;28;20099;-68
2023/02/03 12:06:17;;;;;;;32.58;12.73;;;23.90;32.70;;;;;;5016462;28;20498;-68
2023/02/03 12:09:19;;;;;;;31.08;11.50;;;23.90;32.90;;;;;;5015867;28;20552;-67
2023/02/03 12:12:14;;;;;;;30.13;11.38;;;23.90;32.90;;;;;;5009655;28;20073;-65
2023/02/03 12:15:09;;;;;;;30.40;11.95;;;24.00;33.00;;;;;;5016853;28;20479;-70
2023/02/03 12:17:58;;;;;;;34.47;12.40;;;24.00;32.90;;;;;;5021068;28;20588;-64
2023/02/03 12:20:51;;;;;;;27.23;11.40;;;24.10;32.90;;;;;;5021710;28;20540;-66
2023/02/03 12:23:44;;;;;;;23.05;9.73;;;24.10;32.80;;;;;;5024683;28;20061;-70
2023/02/03 12:26:28;;;;;;;29.33;11.05;;;24.10;32.80;;;;;;5020163;28;20158;-68
2023/02/03 12:29:13;;;;;;;25.15;10.10;;;24.10;32.90;;;;;;5026661;28;20129;-69
2023/02/03 12:32:13;;;;;;;23.02;9.85;;;24.20;32.90;;;;;;5025883;28;20137;-66
2023/02/03 12:35:02;;;;;;;21.38;9.00;;;24.20;32.80;;;;;;5009853;28;20060;-72
2023/02/03 12:37:42;;;;;;;27.40;9.90;;;24.20;32.80;;;;;;5005247;28;20087;-67
2023/02/03 12:40:21;;;;;;;24.70;9.80;;;24.30;32.90;;;;;;5007183;28;20053;-67
2023/02/03 12:43:23;;;;;;;23.00;8.90;;;24.30;32.70;;;;;;5021296;28;20049;-69
2023/02/03 12:46:01;;;;;;;26.52;10.00;;;24.30;32.70;;;;;;5007624;28;20042;-67
2023/02/03 12:48:46;;;;;;;19.50;8.00;;;24.30;32.70;;;;;;5022482;28;20061;-67
2023/02/03 12:51:29;;;;;;;21.90;8.30;;;24.40;32.60;;;;;;5021395;28;20408;-66
2023/02/03 12:54:04;;;;;;;25.95;9.73;;;24.40;32.70;;;;;;5022609;28;20431;-70
2023/02/03 12:56:39;;;;;;;25.42;8.75;;;24.40;32.60;;;;;;5018837;28;20076;-66
2023/02/03 12:59:14;;;;;;;42.65;15.15;;;24.40;32.50;;;;;;5019419;28;20520;-67
2023/02/03 13:01:49;;;;;;;33.72;12.82;;;24.40;32.40;;;;;;5024928;28;20420;-68
2023/02/03 13:04:51;;;;;;;28.33;11.52;;;24.40;32.20;;;;;;5024362;28;20051;-63
2023/02/03 13:07:32;;;;;;;34.33;11.77;;;24.50;32.00;;;;;;5029494;28;20416;-64
2023/02/03 13:10:14;;;;;;;29.90;9.93;;;24.50;31.90;;;;;;5026689;28;20420;-66
2023/02/03 13:12:51;;;;;;;22.40;9.70;;;24.50;31.90;;;;;;5028854;28;20042;-65
2023/02/03 13:15:38;;;;;;;23.40;9.30;;;24.50;31.70;;;;;;5029455;28;20588;-65
2023/02/03 13:18:28;;;;;;;22.00;9.02;;;24.50;31.80;;;;;;5024988;28;20472;-65